Overton Beach, Nevada
Current Conditions -  °F | °C
As of 11:58 AM on Thursday 23 Oct 2014 (Local Time) from KLSV Reporting Station
Clear Clear  
Wind Chill: 80°   Ceiling: Unl
Heat Index: 80°   Visibility: 10mi
Dew Point: 33°   Wind: 9mph
Humidity: 19%   Direction: 50°NE
Pressure: 30.06"   Gusts: NA
Location:  36.5809°N, 114.605°W
Report Text: KLSV 231858Z AUTO 05008KT 10SM CLR 26/01 A3006 RMK AO2 SLP163 T02640006 $
Loading
Personal Weather Stations






























Interactive Weather Map
Tropical Storm Tracking
New forecast layout! Learn more

10-Day Weather Forecast

Advertisements
Track Severe Weather on mobile